createdAt,value
2023-04-19T00:01:44.234Z,5.68
2023-04-19T00:04:15.324Z,6.10
2023-04-19T00:06:43.568Z,5.80
2023-04-19T00:09:11.325Z,6.60
2023-04-19T00:11:39.412Z,5.85
2023-04-19T00:14:07.420Z,6.13
2023-04-19T00:16:35.311Z,6.82
2023-04-19T00:19:03.164Z,6.90
2023-04-19T00:21:32.429Z,5.78
2023-04-19T00:24:00.250Z,7.13
2023-04-19T00:26:28.021Z,7.18
2023-04-19T00:28:57.416Z,7.25
2023-04-19T00:31:25.326Z,7.10
2023-04-19T00:33:53.422Z,6.88
2023-04-19T00:36:21.318Z,6.88
2023-04-19T00:38:50.716Z,7.32
2023-04-19T00:41:18.763Z,6.53
2023-04-19T00:43:46.606Z,7.03
2023-04-19T00:46:16.242Z,6.82
2023-04-19T00:48:44.150Z,7.32
2023-04-19T00:51:14.025Z,6.55
2023-04-19T00:53:42.428Z,6.95
2023-04-19T00:56:12.463Z,7.20
2023-04-19T00:58:40.387Z,7.28
2023-04-19T01:01:08.275Z,7.65
2023-04-19T01:03:37.121Z,6.72
2023-04-19T01:06:05.383Z,7.03
2023-04-19T01:08:33.762Z,7.15
2023-04-19T01:11:01.688Z,7.35
2023-04-19T01:13:30.864Z,6.65
2023-04-19T01:15:58.939Z,7.28
2023-04-19T01:18:32.655Z,7.45
2023-04-19T01:21:00.696Z,7.97
2023-04-19T01:23:29.876Z,7.68
2023-04-19T01:25:57.743Z,7.03
2023-04-19T01:28:25.681Z,7.05
2023-04-19T01:30:54.246Z,6.22
2023-04-19T01:33:22.444Z,7.68
2023-04-19T01:35:50.991Z,6.95
2023-04-19T01:38:18.927Z,6.38
2023-04-19T01:40:48.225Z,6.32
2023-04-19T01:43:19.528Z,5.93
2023-04-19T01:45:47.322Z,6.28
2023-04-19T01:48:15.427Z,6.50
2023-04-19T01:50:43.277Z,6.55
2023-04-19T01:53:12.071Z,6.10
2023-04-19T01:55:39.940Z,6.18
2023-04-19T01:58:09.849Z,5.60
2023-04-19T02:00:37.676Z,5.85
2023-04-19T02:03:05.797Z,5.47
2023-04-19T02:05:33.724Z,6.25
2023-04-19T02:08:02.388Z,5.80
2023-04-19T02:12:59.935Z,5.65
2023-04-19T02:15:30.450Z,5.53
2023-04-19T02:18:00.108Z,5.28
2023-04-19T02:20:28.080Z,4.95
2023-04-19T02:22:56.509Z,5.85
2023-04-19T02:25:24.385Z,4.95
2023-04-19T02:27:53.707Z,4.80
2023-04-19T02:30:21.854Z,5.15
2023-04-19T02:32:51.205Z,4.60
2023-04-19T02:35:19.053Z,4.03
2023-04-19T02:37:46.900Z,4.05
2023-04-19T02:40:14.883Z,4.03
2023-04-19T02:42:42.804Z,3.97
2023-04-19T02:45:11.081Z,3.65
2023-04-19T02:47:39.038Z,4.75
2023-04-19T02:50:09.628Z,3.42
2023-04-19T02:52:44.033Z,4.13
2023-04-19T02:55:11.874Z,4.18
2023-04-19T02:57:39.890Z,4.20
2023-04-19T03:00:11.675Z,4.40
2023-04-19T03:02:44.131Z,3.70
2023-04-19T03:05:13.787Z,6.15
2023-04-19T03:07:44.314Z,4.20
2023-04-19T03:10:12.630Z,4.75
2023-04-19T03:12:40.614Z,4.57
2023-04-19T03:15:09.750Z,3.70
2023-04-19T03:17:37.845Z,4.05
2023-04-19T03:20:11.000Z,4.03
2023-04-19T03:22:40.656Z,4.38
2023-04-19T03:25:12.417Z,4.47
2023-04-19T03:27:41.859Z,4.45
2023-04-19T03:30:14.175Z,4.30
2023-04-19T03:32:43.925Z,3.92
2023-04-19T03:35:13.666Z,4.07
2023-04-19T03:37:43.455Z,3.85
2023-04-19T03:40:12.022Z,4.00
2023-04-19T03:42:39.949Z,3.47
2023-04-19T03:45:13.243Z,4.03
2023-04-19T03:47:46.710Z,3.95
2023-04-19T03:50:14.636Z,4.03
2023-04-19T03:52:47.420Z,3.78
2023-04-19T03:55:16.021Z,3.55
2023-04-19T03:57:44.251Z,3.50
2023-04-19T04:00:19.901Z,3.60
2023-04-19T04:02:54.654Z,3.60
2023-04-19T04:05:23.882Z,3.80
2023-04-19T04:07:53.171Z,3.70
2023-04-19T04:12:49.924Z,3.58
2023-04-19T04:15:24.853Z,3.75
2023-04-19T04:17:54.699Z,3.88
2023-04-19T04:20:23.022Z,3.75
2023-04-19T04:22:56.908Z,3.95
2023-04-19T04:25:25.886Z,4.22
2023-04-19T04:27:54.675Z,3.83
2023-04-19T04:32:59.011Z,4.75
2023-04-19T04:38:17.608Z,3.40
2023-04-19T04:40:53.637Z,3.67
2023-04-19T04:43:22.595Z,5.13
2023-04-19T04:45:50.824Z,3.60
2023-04-19T04:48:19.724Z,4.57
2023-04-19T04:50:47.591Z,3.85
2023-04-19T04:53:16.873Z,4.10
2023-04-19T04:55:46.763Z,4.50
2023-04-19T04:58:15.363Z,4.13
2023-04-19T05:01:00.244Z,3.47
2023-04-19T05:03:29.120Z,3.72
2023-04-19T05:05:59.694Z,3.63
2023-04-19T05:08:29.520Z,3.63
2023-04-19T05:11:09.447Z,8.52
2023-04-19T05:13:39.028Z,4.28
2023-04-19T05:16:07.466Z,5.03
2023-04-19T05:18:36.116Z,4.15
2023-04-19T05:21:03.999Z,3.47
2023-04-19T05:23:35.080Z,4.05
2023-04-19T05:26:03.004Z,3.90
2023-04-19T05:28:31.180Z,3.88
2023-04-19T05:31:06.378Z,4.13
2023-04-19T05:33:43.211Z,4.28
2023-04-19T05:36:11.515Z,4.35
2023-04-19T05:38:40.745Z,4.22
2023-04-19T05:41:08.803Z,3.90
2023-04-19T05:43:36.581Z,3.95
2023-04-19T05:46:06.155Z,4.37
2023-04-19T05:48:34.059Z,4.10
2023-04-19T05:51:28.304Z,3.72
2023-04-19T05:54:12.678Z,3.65
2023-04-19T05:56:42.102Z,3.78
2023-04-19T05:59:11.482Z,4.05
2023-04-19T06:01:39.430Z,4.50
2023-04-19T06:04:07.694Z,4.28
2023-04-19T06:06:38.083Z,3.67
2023-04-19T06:09:07.089Z,3.67
2023-04-19T06:11:43.107Z,3.78
2023-04-19T06:14:18.244Z,3.55
2023-04-19T06:16:46.549Z,3.40
2023-04-19T06:19:14.498Z,3.97
2023-04-19T06:21:42.452Z,3.00
2023-04-19T06:24:10.944Z,3.55
2023-04-19T06:26:40.160Z,3.20
2023-04-19T06:29:08.016Z,3.00
2023-04-19T06:31:35.973Z,3.75
2023-04-19T06:34:03.788Z,2.95
2023-04-19T06:36:31.660Z,3.13
2023-04-19T06:38:59.488Z,2.88
2023-04-19T06:41:27.379Z,2.78
2023-04-19T06:43:56.570Z,3.63
2023-04-19T06:46:24.488Z,3.13
2023-04-19T06:48:52.364Z,3.03
2023-04-19T06:51:20.225Z,3.10
2023-04-19T06:53:48.061Z,2.55
2023-04-19T06:56:15.951Z,2.50
2023-04-19T06:58:43.818Z,2.60
2023-04-19T07:01:13.155Z,2.78
2023-04-19T07:03:41.814Z,2.80
2023-04-19T07:06:09.877Z,2.42
2023-04-19T07:08:49.192Z,2.80
2023-04-19T07:11:20.219Z,2.55
2023-04-19T07:13:49.067Z,2.58
2023-04-19T07:16:18.366Z,2.40
2023-04-19T07:18:46.359Z,2.80
2023-04-19T07:21:14.278Z,3.22
2023-04-19T07:23:42.304Z,2.70
2023-04-19T07:26:10.285Z,2.75
2023-04-19T07:28:40.576Z,3.17
2023-04-19T07:31:08.492Z,2.88
2023-04-19T07:33:37.726Z,2.47
2023-04-19T07:36:06.663Z,2.80
2023-04-19T07:38:34.499Z,3.40
2023-04-19T07:41:02.337Z,3.15
2023-04-19T07:43:31.123Z,2.47
2023-04-19T07:45:58.907Z,2.75
2023-04-19T07:48:26.843Z,3.13
2023-04-19T07:50:56.223Z,3.50
2023-04-19T07:53:24.062Z,2.97
2023-04-19T07:55:51.816Z,3.10
2023-04-19T07:58:19.712Z,2.83
2023-04-19T08:00:47.551Z,3.20
2023-04-19T08:03:15.582Z,2.85
2023-04-19T08:05:43.592Z,3.28
2023-04-19T08:08:12.841Z,2.95
2023-04-19T08:10:40.624Z,2.80
2023-04-19T08:13:08.814Z,2.85
2023-04-19T08:16:20.354Z,2.75
2023-04-19T08:18:25.589Z,3.25
2023-04-19T08:20:53.859Z,2.70
2023-04-19T08:23:29.501Z,2.60
2023-04-19T08:26:02.692Z,2.22
2023-04-19T08:28:30.656Z,2.50
2023-04-19T08:30:59.990Z,2.55
2023-04-19T08:33:29.455Z,3.10
2023-04-19T08:35:57.316Z,2.42
2023-04-19T08:38:26.600Z,2.80
2023-04-19T08:40:55.979Z,2.60
2023-04-19T08:43:28.689Z,2.57
2023-04-19T08:45:58.258Z,2.70
2023-04-19T08:48:28.471Z,2.30
2023-04-19T08:53:36.625Z,3.28
2023-04-19T09:01:07.227Z,2.55
2023-04-19T09:03:47.252Z,2.70
2023-04-19T09:06:19.411Z,2.50
2023-04-19T09:08:48.773Z,3.05
2023-04-19T09:11:16.877Z,2.92
2023-04-19T09:13:45.029Z,2.60
2023-04-19T09:16:26.074Z,2.80
2023-04-19T09:19:08.613Z,2.17
2023-04-19T09:21:47.515Z,2.90
2023-04-19T09:24:16.649Z,2.72
2023-04-19T09:26:55.386Z,2.55
2023-04-19T09:29:24.262Z,2.65
2023-04-19T09:31:59.969Z,2.70
2023-04-19T09:34:30.558Z,2.88
2023-04-19T09:37:11.040Z,2.92
2023-04-19T09:39:44.339Z,2.80
2023-04-19T09:42:12.132Z,2.80
2023-04-19T09:47:24.265Z,3.15
2023-04-19T09:50:21.922Z,3.15
2023-04-19T09:52:53.281Z,3.35
2023-04-19T09:55:27.767Z,3.83
2023-04-19T09:57:56.494Z,3.47
2023-04-19T10:00:24.733Z,3.38
2023-04-19T10:02:57.969Z,3.22
2023-04-19T10:05:26.824Z,3.17
2023-04-19T10:08:00.117Z,3.20
2023-04-19T10:13:18.146Z,3.42
2023-04-19T10:15:53.653Z,3.63
2023-04-19T10:18:24.128Z,2.75
2023-04-19T10:20:56.404Z,3.20
2023-04-19T10:23:24.574Z,3.00
2023-04-19T10:25:57.438Z,3.42
2023-04-19T10:28:25.691Z,2.53
2023-04-19T10:30:54.714Z,3.17
2023-04-19T10:33:27.172Z,3.78
2023-04-19T10:35:57.291Z,3.20
2023-04-19T10:38:38.708Z,3.42
2023-04-19T10:41:17.076Z,3.25
2023-04-19T10:43:47.043Z,2.97
2023-04-19T10:46:17.736Z,3.30
2023-04-19T10:48:56.154Z,2.90
2023-04-19T10:51:27.832Z,3.20
2023-04-19T10:53:58.397Z,3.35
2023-04-19T10:57:00.436Z,3.05
2023-04-19T10:59:31.593Z,2.92
2023-04-19T11:02:01.744Z,2.65
2023-04-19T11:05:02.473Z,2.45
2023-04-19T11:07:37.270Z,2.50
2023-04-19T11:10:06.674Z,3.00
2023-04-19T11:12:36.071Z,2.83
2023-04-19T11:15:03.945Z,2.93
2023-04-19T11:17:32.848Z,3.15
2023-04-19T11:20:02.185Z,2.60
2023-04-19T11:22:33.900Z,2.65
2023-04-19T11:25:09.967Z,2.80
2023-04-19T11:27:39.940Z,2.60
2023-04-19T11:30:10.533Z,2.70
2023-04-19T11:32:39.039Z,2.63
2023-04-19T11:35:08.938Z,2.40
2023-04-19T11:37:38.059Z,2.58
2023-04-19T11:40:07.822Z,2.50
2023-04-19T11:42:35.865Z,2.55
2023-04-19T11:45:09.056Z,2.70
2023-04-19T11:47:49.035Z,2.90
2023-04-19T11:50:33.243Z,2.88
2023-04-19T11:53:01.631Z,2.80
2023-04-19T11:55:34.668Z,3.00
2023-04-19T11:58:02.533Z,2.70
2023-04-19T12:00:31.747Z,3.03
2023-04-19T12:03:01.754Z,2.95
2023-04-19T12:05:30.146Z,2.65
2023-04-19T12:08:02.241Z,2.97
2023-04-19T12:10:30.858Z,2.30
2023-04-19T12:12:58.843Z,2.40
2023-04-19T12:15:46.295Z,2.92
2023-04-19T12:18:14.211Z,2.35
2023-04-19T12:20:46.346Z,2.50
2023-04-19T12:23:15.773Z,2.22
2023-04-19T12:25:44.770Z,2.10
2023-04-19T12:28:12.649Z,2.20
2023-04-19T12:30:41.141Z,2.45
2023-04-19T12:33:10.642Z,2.28
2023-04-19T12:35:39.122Z,2.10
2023-04-19T12:38:06.957Z,1.95
2023-04-19T12:40:35.136Z,2.20
2023-04-19T12:43:02.994Z,2.05
2023-04-19T12:45:30.920Z,2.17
2023-04-19T12:47:58.694Z,2.00
2023-04-19T12:50:27.953Z,2.13
2023-04-19T12:52:55.879Z,2.30
2023-04-19T12:55:24.004Z,2.58
2023-04-19T12:57:51.887Z,2.30
2023-04-19T13:00:19.660Z,2.05
2023-04-19T13:02:48.353Z,2.53
2023-04-19T13:05:16.496Z,2.72
2023-04-19T13:07:45.687Z,2.22
2023-04-19T13:10:13.569Z,2.15
2023-04-19T13:12:41.479Z,2.42
2023-04-19T13:15:10.765Z,2.90
2023-04-19T13:17:38.700Z,2.65
2023-04-19T13:20:07.930Z,2.75
2023-04-19T13:22:35.792Z,2.38
2023-04-19T13:25:05.179Z,3.10
2023-04-19T13:27:33.005Z,2.90
2023-04-19T13:30:00.933Z,2.70
2023-04-19T13:32:28.753Z,2.38
2023-04-19T13:34:56.528Z,2.42
2023-04-19T13:37:24.387Z,2.75
2023-04-19T13:39:52.451Z,2.35
2023-04-19T13:42:23.263Z,2.70
2023-04-19T13:44:51.362Z,2.20
2023-04-19T13:47:19.105Z,2.63
2023-04-19T13:49:51.978Z,2.58
2023-04-19T13:52:19.820Z,2.28
2023-04-19T13:54:47.598Z,2.45
2023-04-19T13:57:15.548Z,2.60
2023-04-19T13:59:44.670Z,2.20
2023-04-19T14:02:12.778Z,2.45
2023-04-19T14:04:40.641Z,2.72
2023-04-19T14:07:08.428Z,3.03
2023-04-19T14:09:36.706Z,2.67
2023-04-19T14:12:05.195Z,2.65
2023-04-19T14:14:33.175Z,2.88
2023-04-19T14:17:02.349Z,2.83
2023-04-19T14:19:30.111Z,2.78
2023-04-19T14:21:58.126Z,3.40
2023-04-19T14:24:26.066Z,2.80
2023-04-19T14:27:09.130Z,2.55
2023-04-19T14:29:38.586Z,2.60
2023-04-19T14:32:24.181Z,3.17
2023-04-19T14:34:54.535Z,2.40
2023-04-19T14:37:24.217Z,2.50
2023-04-19T14:39:52.292Z,3.00
2023-04-19T14:42:22.557Z,3.08
2023-04-19T14:44:51.999Z,3.03
2023-04-19T14:47:22.015Z,3.00
2023-04-19T14:49:49.932Z,2.72
2023-04-19T14:52:18.234Z,3.20
2023-04-19T14:54:46.114Z,3.30
2023-04-19T14:57:14.349Z,3.17
2023-04-19T14:59:42.236Z,3.20
2023-04-19T15:02:10.910Z,3.53
2023-04-19T15:04:41.216Z,3.63
2023-04-19T15:07:09.670Z,3.47
2023-04-19T15:09:37.439Z,3.35
2023-04-19T15:12:05.827Z,3.67
2023-04-19T15:14:33.615Z,3.88
2023-04-19T15:17:01.908Z,4.20
2023-04-19T15:19:30.926Z,3.85
2023-04-19T15:22:00.074Z,3.42
2023-04-19T15:24:27.798Z,3.15
2023-04-19T15:26:56.470Z,3.35
2023-04-19T15:29:24.289Z,5.85
2023-04-19T15:31:52.164Z,4.47
2023-04-19T15:34:20.201Z,4.00
2023-04-19T15:36:47.932Z,3.72
2023-04-19T15:39:17.258Z,3.53
2023-04-19T15:41:45.217Z,3.90
2023-04-19T15:44:12.996Z,3.92
2023-04-19T15:46:41.349Z,3.33
2023-04-19T15:49:09.241Z,3.95
2023-04-19T15:51:38.249Z,3.30
2023-04-19T15:54:06.283Z,3.67
2023-04-19T15:56:35.479Z,3.35
2023-04-19T15:59:03.260Z,3.05
2023-04-19T16:01:31.218Z,3.30
2023-04-19T16:03:59.244Z,3.00
2023-04-19T16:06:27.335Z,3.33
2023-04-19T16:08:55.173Z,3.10
2023-04-19T16:11:23.091Z,3.58
2023-04-19T16:13:52.366Z,3.08
2023-04-19T16:16:20.251Z,3.38
2023-04-19T16:18:48.160Z,3.28
2023-04-19T16:21:15.961Z,3.33
2023-04-19T16:23:43.771Z,3.45
2023-04-19T16:26:11.567Z,3.67
2023-04-19T16:28:39.349Z,3.72
2023-04-19T16:31:08.534Z,3.50
2023-04-19T16:33:36.375Z,3.00
2023-04-19T16:36:04.397Z,3.13
2023-04-19T16:38:32.230Z,2.65
2023-04-19T16:41:02.030Z,2.92
2023-04-19T16:43:29.969Z,3.88
2023-04-19T16:45:57.877Z,3.63
2023-04-19T16:48:27.571Z,3.17
2023-04-19T16:50:55.420Z,3.55
2023-04-19T16:53:23.304Z,3.25
2023-04-19T16:55:51.069Z,3.03
2023-04-19T16:58:18.840Z,2.92
2023-04-19T17:00:46.699Z,4.00
2023-04-19T17:03:14.935Z,3.42
2023-04-19T17:05:44.197Z,4.38
2023-04-19T17:08:12.162Z,3.67
2023-04-19T17:10:39.978Z,3.83
2023-04-19T17:13:07.826Z,2.95
2023-04-19T17:15:35.757Z,3.22
2023-04-19T17:18:04.011Z,3.45
2023-04-19T17:20:31.864Z,3.50
2023-04-19T17:23:01.055Z,3.05
2023-04-19T17:25:28.986Z,3.72
2023-04-19T17:27:56.745Z,3.63
2023-04-19T17:30:24.560Z,3.22
2023-04-19T17:32:52.651Z,3.10
2023-04-19T17:35:20.498Z,3.20
2023-04-19T17:37:48.397Z,3.03
2023-04-19T17:40:17.537Z,4.00
2023-04-19T17:42:45.519Z,4.68
2023-04-19T17:45:13.375Z,3.33
2023-04-19T17:47:41.829Z,3.63
2023-04-19T17:50:12.057Z,4.25
2023-04-19T17:52:40.442Z,6.72
2023-04-19T17:55:08.894Z,3.63
2023-04-19T17:57:38.152Z,3.50
2023-04-19T18:00:10.906Z,4.78
2023-04-19T18:02:38.894Z,3.92
2023-04-19T18:05:07.421Z,3.45
2023-04-19T18:07:36.754Z,3.45
2023-04-19T18:10:05.345Z,3.07
2023-04-19T18:12:33.145Z,4.07
2023-04-19T18:15:02.448Z,3.42
2023-04-19T18:17:31.261Z,3.33
2023-04-19T18:19:59.098Z,3.85
2023-04-19T18:22:26.921Z,3.45
2023-04-19T18:24:54.710Z,3.72
2023-04-19T18:27:22.500Z,3.88
2023-04-19T18:29:52.077Z,3.90
2023-04-19T18:32:21.883Z,3.67
2023-04-19T18:34:49.830Z,3.75
2023-04-19T18:37:18.120Z,3.55
2023-04-19T18:39:46.042Z,3.85
2023-04-19T18:42:13.813Z,3.95
2023-04-19T18:47:12.368Z,3.55
2023-04-19T18:49:45.760Z,3.90
2023-04-19T18:52:20.795Z,3.25
2023-04-19T18:54:48.621Z,3.10
2023-04-19T18:59:47.129Z,3.30
2023-04-19T19:02:15.003Z,3.30
2023-04-19T19:07:34.368Z,3.30
2023-04-19T19:10:15.990Z,3.75
2023-04-19T19:12:46.080Z,4.22
2023-04-19T19:15:14.734Z,3.60
2023-04-19T19:17:43.116Z,4.25
2023-04-19T19:20:13.094Z,3.70
2023-04-19T19:22:40.959Z,3.25
2023-04-19T19:25:09.486Z,3.90
2023-04-19T19:27:37.763Z,3.80
2023-04-19T19:30:07.734Z,3.40
2023-04-19T19:32:36.142Z,3.60
2023-04-19T19:35:08.138Z,4.03
2023-04-19T19:37:38.466Z,4.18
2023-04-19T19:40:10.796Z,4.00
2023-04-19T19:42:40.561Z,3.65
2023-04-19T19:45:09.823Z,3.60
2023-04-19T19:47:43.429Z,3.90
2023-04-19T19:51:01.110Z,3.80
2023-04-19T19:53:03.465Z,4.28
2023-04-19T19:55:31.279Z,3.75
2023-04-19T20:00:44.122Z,4.63
2023-04-19T20:03:14.447Z,4.70
2023-04-19T20:05:42.645Z,4.28
2023-04-19T20:08:13.649Z,4.28
2023-04-19T20:10:43.399Z,3.88
2023-04-19T20:13:12.870Z,3.97
2023-04-19T20:15:41.206Z,4.17
2023-04-19T20:18:09.229Z,3.88
2023-04-19T20:20:37.567Z,3.67
2023-04-19T20:23:05.882Z,4.18
2023-04-19T20:25:35.144Z,3.70
2023-04-19T20:28:04.709Z,4.20
2023-04-19T20:30:32.580Z,3.97
2023-04-19T20:33:01.195Z,4.22
2023-04-19T20:35:29.363Z,4.00
2023-04-19T20:38:02.320Z,4.40
2023-04-19T20:40:32.038Z,5.20
2023-04-19T20:43:01.603Z,4.65
2023-04-19T20:45:29.890Z,5.78
2023-04-19T20:47:58.467Z,4.13
2023-04-19T20:50:26.626Z,4.95
2023-04-19T20:52:54.405Z,4.55
2023-04-19T20:55:22.268Z,4.22
2023-04-19T20:57:50.078Z,3.78
2023-04-19T21:00:20.298Z,4.25
2023-04-19T21:02:49.468Z,4.07
2023-04-19T21:05:17.453Z,4.87
2023-04-19T21:07:45.208Z,4.53
2023-04-19T21:10:13.738Z,4.00
2023-04-19T21:12:41.515Z,4.55
2023-04-19T21:15:09.919Z,4.45
2023-04-19T21:17:39.113Z,4.80
2023-04-19T21:20:12.223Z,5.80
2023-04-19T21:22:40.188Z,6.18
2023-04-19T21:25:09.127Z,6.15
2023-04-19T21:27:37.574Z,6.53
2023-04-19T21:30:06.074Z,6.40
2023-04-19T21:32:34.338Z,6.13
2023-04-19T21:35:04.342Z,5.32
2023-04-19T21:37:32.125Z,6.00
2023-04-19T21:39:59.967Z,5.97
2023-04-19T21:42:27.698Z,6.10
2023-04-19T21:44:55.523Z,6.00
2023-04-19T21:47:23.286Z,5.75
2023-04-19T21:49:51.299Z,5.60
2023-04-19T21:52:20.586Z,5.80
2023-04-19T21:54:48.773Z,5.47
2023-04-19T21:57:17.617Z,5.60
2023-04-19T21:59:45.386Z,5.65
2023-04-19T22:02:13.220Z,6.10
2023-04-19T22:04:41.681Z,5.45
2023-04-19T22:07:11.348Z,5.85
2023-04-19T22:09:40.601Z,5.65
2023-04-19T22:12:09.296Z,5.13
2023-04-19T22:14:37.370Z,6.20
2023-04-19T22:17:06.402Z,4.80
2023-04-19T22:19:34.167Z,5.75
2023-04-19T22:22:02.051Z,4.85
2023-04-19T22:24:29.875Z,5.82
2023-04-19T22:26:59.007Z,5.40
2023-04-19T22:29:26.756Z,5.50
2023-04-19T22:31:54.632Z,4.72
2023-04-19T22:34:22.767Z,4.82
2023-04-19T22:36:50.751Z,6.05
2023-04-19T22:39:18.771Z,4.90
2023-04-19T22:41:46.644Z,5.32
2023-04-19T22:44:15.823Z,5.13
2023-04-19T22:46:43.812Z,5.15
2023-04-19T22:49:11.626Z,4.25
2023-04-19T22:51:39.490Z,4.57
2023-04-19T22:54:07.234Z,4.90
2023-04-19T22:56:35.053Z,4.95
2023-04-19T22:59:02.834Z,4.50
2023-04-19T23:01:32.069Z,4.30
2023-04-19T23:03:59.876Z,4.45
2023-04-19T23:06:28.859Z,4.93
2023-04-19T23:08:56.697Z,4.10
2023-04-19T23:11:25.085Z,4.50
2023-04-19T23:13:54.032Z,3.60
2023-04-19T23:16:24.122Z,3.85
2023-04-19T23:18:54.386Z,4.18
2023-04-19T23:21:22.233Z,4.72
2023-04-19T23:23:51.318Z,4.43
2023-04-19T23:26:19.164Z,4.75
2023-04-19T23:28:46.927Z,4.80
2023-04-19T23:31:15.077Z,5.05
2023-04-19T23:33:42.984Z,4.63
2023-04-19T23:36:12.201Z,4.50
2023-04-19T23:38:39.972Z,5.05
2023-04-19T23:41:10.801Z,5.13
2023-04-19T23:43:38.781Z,4.95
2023-04-19T23:46:07.492Z,4.90
2023-04-19T23:48:35.885Z,5.18
2023-04-19T23:51:03.632Z,5.00
2023-04-19T23:53:32.710Z,4.80
2023-04-19T23:56:00.525Z,6.47
2023-04-19T23:58:28.291Z,5.53
